This is the latest recevied weather packets stored in our database for station/object DR0T. If no packets are shown the sender has not sent any weather packets the latest 1 day(s).
| Time | Temp. | Humidity | Pressure | Rain* | Wind** | Luminosity | Snow |
|---|---|---|---|---|---|---|---|
| 1836274827 | 18.89° C | 70% | 1022 hPa | 0 mm | 0.89 m/s, 236° | - | - |
| 1836274528 | 18.89° C | 69% | 1022 hPa | 0 mm | 1.34 m/s, 235° | - | - |
| 1836274382 | 18.89° C | 70% | 1022 hPa | 0 mm | 0.89 m/s, 236° | - | - |
| 1836274224 | 18.89° C | 69% | 1022.1 hPa | 0 mm | 1.34 m/s, 235° | - | - |
| 1836273925 | 19.44° C | 68% | 1022 hPa | 0 mm | 0.89 m/s, 236° | - | - |
| 1778017651 | 11.11° C | 99% | 1008.5 hPa | 1.78 mm | 1.34 m/s, 238° | - | - |
| 1778017350 | 11.11° C | 99% | 1008.5 hPa | 1.52 mm | 1.34 m/s, 229° | - | - |
| 1778017049 | 11.11° C | 99% | 1008.5 hPa | 1.52 mm | 1.79 m/s, 239° | - | - |
| 1778016747 | 11.11° C | 99% | 1008.6 hPa | 1.78 mm | 1.79 m/s, 236° | - | - |
| 1778016452 | 11.11° C | 99% | 1008.6 hPa | 3.05 mm | 1.79 m/s, 239° | - | - |
| 1778016145 | 11.11° C | 99% | 1008.6 hPa | 3.05 mm | 1.79 m/s, 242° | - | - |
| 1778015845 | 11.11° C | 99% | 1008.6 hPa | 3.05 mm | 1.79 m/s, 241° | - | - |
| 1778015542 | 11.67° C | 99% | 1008.6 hPa | 2.79 mm | 1.79 m/s, 239° | - | - |
| 1778015241 | 11.67° C | 99% | 1008.6 hPa | 2.54 mm | 1.79 m/s, 231° | - | - |
| 1778014939 | 11.67° C | 99% | 1008.6 hPa | 2.29 mm | 1.79 m/s, 232° | - | - |
| 1778014640 | 11.67° C | 99% | 1008.6 hPa | 2.03 mm | 1.34 m/s, 231° | - | - |
| 1778014339 | 11.67° C | 98% | 1008.4 hPa | 1.78 mm | 0.89 m/s, 213° | - | - |
| 1778013756 | 11.67° C | 98% | 1008.4 hPa | 1.78 mm | 0.45 m/s, 161° | - | - |
| 1778013453 | 11.67° C | 97% | 1008.6 hPa | 1.78 mm | 0.45 m/s, 151° | - | - |
| 1778013152 | 12.22° C | 97% | 1008.5 hPa | 1.52 mm | 0 m/s | - | - |
| 1778012853 | 12.22° C | 96% | 1008.5 hPa | 0.25 mm | 0 m/s | - | - |
| 1778012549 | 12.22° C | 96% | 1008.5 hPa | 0 mm | 0 m/s | - | - |
| 1778012248 | 12.22° C | 96% | 1008.5 hPa | 0 mm | 0.45 m/s, 180° | - | - |
| 1778011947 | 12.22° C | 96% | 1008.4 hPa | 0 mm | 0 m/s | - | - |
| 1778011646 | 12.22° C | 96% | 1008.4 hPa | 0 mm | 0 m/s | - | - |
* Rain latest hour (hover to see other rain measurements)
** Current wind speed in m/s (hover to see current wind gust speed)